Time;durP1;ratioP1;P1;durP2;ratioP2;P2;SDS_P1;SDS_P2;PMS_P1;PMS_P2;Temp;Humidity;BMP_temperature;BMP_pressure;BME280_temperature;BME280_humidity;BME280_pressure;Samples;Min_cycle;Max_cycle;Signal;HPM_P1;HPM_P2
2022/07/07 00:00:14;;;;;;;2.25;1.08;;;;;;;12.96;79.83;96509.44;5008623;28;24510;-73
2022/07/07 00:02:41;;;;;;;2.92;1.60;;;;;;;12.94;80.10;96511.28;5011480;28;24440;-74
2022/07/07 00:05:07;;;;;;;2.35;1.33;;;;;;;13.03;80.15;96515.94;5011280;28;24432;-73
2022/07/07 00:07:35;;;;;;;3.75;1.23;;;;;;;13.11;80.09;96508.50;5004915;28;24440;-73
2022/07/07 00:10:01;;;;;;;3.08;1.50;;;;;;;13.23;79.62;96501.72;5011489;28;24440;-73
2022/07/07 00:12:28;;;;;;;1.83;1.20;;;;;;;13.27;79.00;96503.22;5011170;28;24805;-73
2022/07/07 00:14:54;;;;;;;3.83;1.40;;;;;;;13.27;78.29;96498.00;5011149;28;24568;-73
2022/07/07 00:17:21;;;;;;;2.60;1.20;;;;;;;13.06;80.44;96500.16;5010673;28;24443;-73
2022/07/07 00:19:47;;;;;;;3.05;1.30;;;;;;;12.97;81.27;96498.09;5008183;28;24497;-73
2022/07/07 00:22:14;;;;;;;4.03;1.33;;;;;;;13.08;80.47;96501.72;5011121;28;24479;-73
2022/07/07 00:24:42;;;;;;;3.00;1.40;;;;;;;13.17;80.83;96499.50;5011017;28;25053;-73
2022/07/07 00:27:08;;;;;;;3.83;1.35;;;;;;;13.25;80.15;96498.13;5001948;28;24440;-72
2022/07/07 00:29:34;;;;;;;3.45;1.48;;;;;;;13.25;80.10;96498.13;5008631;28;24448;-72
2022/07/07 00:32:01;;;;;;;3.13;1.52;;;;;;;13.22;79.75;96497.44;5009443;28;24464;-73
2022/07/07 00:34:27;;;;;;;5.35;1.45;;;;;;;13.32;79.66;96491.63;5009400;28;24490;-74
2022/07/07 00:36:54;;;;;;;2.80;1.13;;;;;;;13.37;79.94;96498.28;5009567;28;24439;-74
2022/07/07 00:39:20;;;;;;;3.38;1.67;;;;;;;13.39;79.98;96491.25;5009278;28;25005;-74
2022/07/07 00:41:48;;;;;;;2.28;1.15;;;;;;;13.45;79.70;96496.88;5010673;28;24432;-73
2022/07/07 00:44:14;;;;;;;2.90;1.30;;;;;;;13.50;79.26;96489.63;5007535;28;24436;-73
2022/07/07 00:46:46;;;;;;;1.42;1.13;;;;;;;13.46;79.76;96490.75;5006019;28;25092;-72
2022/07/07 00:49:13;;;;;;;2.47;1.58;;;;;;;13.51;79.73;96482.66;5005268;28;24447;-72
2022/07/07 00:51:41;;;;;;;2.40;1.20;;;;;;;13.48;80.26;96486.28;5010467;28;24498;-72
2022/07/07 00:54:08;;;;;;;2.80;1.35;;;;;;;13.49;80.36;96472.31;5009616;28;25005;-72
2022/07/07 00:56:35;;;;;;;3.13;1.45;;;;;;;13.53;80.23;96470.38;5007733;28;24795;-72
2022/07/07 00:59:06;;;;;;;1.85;1.48;;;;;;;13.59;80.03;96469.16;5010246;28;24789;-72
2022/07/07 01:01:34;;;;;;;2.22;1.20;;;;;;;13.58;79.56;96470.94;5010289;28;24472;-72
2022/07/07 01:04:02;;;;;;;2.23;1.57;;;;;;;13.50;79.89;96457.56;5009857;28;24507;-72
2022/07/07 01:06:29;;;;;;;2.60;1.10;;;;;;;13.58;78.90;96454.47;5008595;28;24432;-72
2022/07/07 01:08:56;;;;;;;1.90;1.27;;;;;;;13.55;78.88;96458.94;5009263;28;24440;-73
2022/07/07 01:11:23;;;;;;;2.77;1.30;;;;;;;13.65;78.59;96459.19;5010049;28;24905;-72
2022/07/07 01:13:49;;;;;;;1.95;1.40;;;;;;;13.64;78.44;96460.09;5010189;28;24506;-72
2022/07/07 01:16:17;;;;;;;1.17;1.02;;;;;;;13.67;78.39;96459.09;5010147;28;24452;-72
2022/07/07 01:18:44;;;;;;;2.10;1.33;;;;;;;13.63;77.68;96458.44;5007953;28;24476;-73
2022/07/07 01:21:12;;;;;;;2.15;1.30;;;;;;;13.39;79.23;96452.22;5010882;28;24495;-73
2022/07/07 01:23:40;;;;;;;2.58;1.48;;;;;;;13.31;79.76;96460.47;5010160;28;24510;-73
2022/07/07 01:26:07;;;;;;;2.00;1.40;;;;;;;13.34;79.55;96457.69;5004842;28;25028;-73
2022/07/07 01:28:34;;;;;;;4.70;1.42;;;;;;;13.40;79.24;96454.69;5006939;28;24449;-74
2022/07/07 01:31:00;;;;;;;1.73;1.30;;;;;;;13.44;79.98;96444.94;5009472;28;24547;-73
2022/07/07 01:33:27;;;;;;;5.15;1.23;;;;;;;13.42;80.04;96438.97;5010005;28;24432;-73
2022/07/07 01:35:53;;;;;;;5.88;1.50;;;;;;;13.28;80.15;96442.47;5009635;28;24452;-73
2022/07/07 01:38:19;;;;;;;5.18;1.67;;;;;;;13.31;79.98;96442.25;5009651;28;25016;-73
2022/07/07 01:40:47;;;;;;;3.17;1.10;;;;;;;13.32;79.84;96439.56;5005052;28;24436;-73
2022/07/07 01:43:14;;;;;;;2.47;1.40;;;;;;;13.30;80.49;96441.44;5009827;28;24538;-74
2022/07/07 01:45:40;;;;;;;1.88;1.35;;;;;;;13.38;79.62;96430.53;5010007;28;24834;-73
2022/07/07 01:48:07;;;;;;;2.63;1.50;;;;;;;13.30;80.20;96428.41;5002506;28;24441;-73
2022/07/07 01:50:34;;;;;;;4.32;1.40;;;;;;;13.35;79.87;96416.88;5004591;28;24432;-72
2022/07/07 01:53:00;;;;;;;3.45;1.17;;;;;;;13.25;80.58;96422.69;5010108;28;24443;-73
2022/07/07 01:55:26;;;;;;;2.67;1.30;;;;;;;13.27;80.85;96425.19;5009926;28;24452;-72
2022/07/07 01:57:54;;;;;;;2.45;1.30;;;;;;;13.26;80.86;96411.34;5006944;28;25105;-72
2022/07/07 02:00:21;;;;;;;2.42;1.30;;;;;;;13.37;80.29;96413.25;5003998;28;24432;-73
2022/07/07 02:02:47;;;;;;;2.00;1.27;;;;;;;13.26;80.87;96418.31;5005073;28;24846;-73
2022/07/07 02:05:13;;;;;;;2.83;1.33;;;;;;;13.29;80.98;96424.16;5002649;28;24432;-72
2022/07/07 02:07:40;;;;;;;1.77;1.13;;;;;;;13.27;80.80;96420.84;5007899;28;24807;-73
2022/07/07 02:10:07;;;;;;;1.52;1.20;;;;;;;13.25;81.31;96414.88;5009237;28;25024;-73
2022/07/07 02:12:33;;;;;;;2.90;1.23;;;;;;;13.20;81.21;96424.72;5001977;28;25020;-73
2022/07/07 02:15:01;;;;;;;2.83;1.20;;;;;;;13.21;80.76;96420.34;5009851;28;24452;-73
2022/07/07 02:17:28;;;;;;;1.33;1.15;;;;;;;13.28;80.44;96435.50;5009406;28;24437;-73
2022/07/07 02:19:54;;;;;;;3.40;1.40;;;;;;;13.34;80.88;96436.03;5009275;28;24440;-73
2022/07/07 02:22:21;;;;;;;3.22;1.55;;;;;;;13.35;79.93;96430.75;5008294;28;24440;-74
2022/07/07 02:24:47;;;;;;;2.75;1.38;;;;;;;13.24;80.42;96425.41;5000524;28;24811;-73
2022/07/07 02:27:14;;;;;;;2.38;1.60;;;;;;;13.25;80.53;96427.06;5009185;28;24441;-72
2022/07/07 02:29:40;;;;;;;2.28;1.17;;;;;;;13.23;80.57;96421.06;5005167;28;24869;-72
2022/07/07 02:32:08;;;;;;;2.55;1.23;;;;;;;13.29;80.37;96423.31;5001016;28;24494;-73
2022/07/07 02:34:35;;;;;;;1.83;1.30;;;;;;;13.28;80.31;96419.91;5002600;28;24547;-73
2022/07/07 02:37:01;;;;;;;2.47;1.42;;;;;;;13.33;80.56;96419.59;5003429;28;24498;-74
2022/07/07 02:39:27;;;;;;;5.03;1.50;;;;;;;13.41;80.29;96425.16;5002875;28;24444;-73
2022/07/07 02:41:54;;;;;;;1.92;1.50;;;;;;;13.45;79.87;96424.00;5009389;28;24522;-73
2022/07/07 02:44:20;;;;;;;5.82;1.30;;;;;;;13.43;79.69;96428.50;5006141;28;24440;-72
2022/07/07 02:46:47;;;;;;;2.50;1.50;;;;;;;13.46;79.42;96427.44;5006610;28;24479;-72
2022/07/07 02:49:14;;;;;;;6.07;1.58;;;;;;;13.41;79.76;96419.09;5009264;28;24452;-73
2022/07/07 02:51:41;;;;;;;2.28;1.50;;;;;;;13.42;79.91;96421.63;4997983;28;24440;-73
2022/07/07 02:54:07;;;;;;;2.95;1.48;;;;;;;13.49;79.45;96412.47;5003162;28;25039;-72
2022/07/07 02:56:34;;;;;;;3.10;1.38;;;;;;;13.43;79.80;96412.88;5008848;28;24463;-72
2022/07/07 02:59:00;;;;;;;1.85;1.25;;;;;;;13.36;80.44;96414.19;5002895;28;24444;-73
2022/07/07 03:01:26;;;;;;;1.20;1.10;;;;;;;13.35;80.35;96416.88;4995607;28;24503;-73
2022/07/07 03:03:53;;;;;;;2.25;1.27;;;;;;;13.32;81.05;96416.16;5004704;28;24847;-73
2022/07/07 03:06:21;;;;;;;1.70;1.17;;;;;;;13.27;81.38;96423.44;5006252;28;25005;-73
2022/07/07 03:08:47;;;;;;;2.25;1.50;;;;;;;13.18;81.65;96417.94;5009399;28;24499;-73
2022/07/07 03:11:13;;;;;;;2.15;1.50;;;;;;;13.21;81.50;96412.53;5005263;28;24437;-73
2022/07/07 03:13:40;;;;;;;2.78;1.30;;;;;;;13.18;81.59;96410.13;5012574;28;24487;-73
2022/07/07 03:16:07;;;;;;;1.65;1.10;;;;;;;13.17;81.32;96411.06;5012061;28;25018;-73
2022/07/07 03:18:33;;;;;;;1.25;1.10;;;;;;;13.08;82.09;96399.47;5011271;28;24544;-73
2022/07/07 03:21:00;;;;;;;3.72;1.25;;;;;;;13.12;82.07;96402.72;5005599;28;24444;-73
2022/07/07 03:23:27;;;;;;;2.05;1.20;;;;;;;13.12;81.74;96394.91;5011131;28;24444;-73
2022/07/07 03:25:54;;;;;;;2.38;1.27;;;;;;;13.10;81.93;96401.97;5010726;28;25090;-73
2022/07/07 03:28:20;;;;;;;2.10;1.20;;;;;;;13.02;82.70;96390.28;5010408;28;24989;-73
2022/07/07 03:30:47;;;;;;;1.90;1.10;;;;;;;12.98;82.51;96391.41;5010730;28;24443;-73
2022/07/07 03:33:13;;;;;;;3.58;1.50;;;;;;;12.93;82.75;96390.03;5007149;28;24993;-72
2022/07/07 03:35:40;;;;;;;2.92;1.35;;;;;;;12.85;83.43;96393.09;5010633;28;24456;-72
2022/07/07 03:38:06;;;;;;;1.83;1.23;;;;;;;12.82;83.59;96398.47;5012060;28;24452;-72
2022/07/07 03:40:35;;;;;;;3.08;1.10;;;;;;;12.84;82.97;96399.22;5012198;28;24974;-73
2022/07/07 03:43:01;;;;;;;4.88;1.42;;;;;;;12.83;83.22;96395.81;5012174;28;24519;-73
2022/07/07 03:45:27;;;;;;;2.63;1.42;;;;;;;12.82;83.05;96394.13;5010651;28;24838;-72
2022/07/07 03:47:54;;;;;;;2.10;1.10;;;;;;;12.87;82.64;96393.84;5011532;28;24539;-73
2022/07/07 03:50:20;;;;;;;2.65;1.55;;;;;;;12.76;83.87;96393.69;5012371;28;24443;-73
2022/07/07 03:52:47;;;;;;;2.20;1.33;;;;;;;12.78;83.73;96386.59;5007526;28;24448;-72
2022/07/07 03:55:13;;;;;;;2.07;1.37;;;;;;;12.74;83.57;96385.97;5008460;28;24456;-73
2022/07/07 03:57:41;;;;;;;2.70;1.40;;;;;;;12.72;84.19;96379.19;5011178;28;25178;-73
2022/07/07 04:00:09;;;;;;;2.87;1.20;;;;;;;12.71;84.61;96378.34;5007121;28;24498;-73
2022/07/07 04:02:36;;;;;;;1.75;1.15;;;;;;;12.71;83.81;96380.94;5011585;28;24535;-73
2022/07/07 04:05:02;;;;;;;2.22;1.40;;;;;;;12.78;84.20;96384.84;5009928;28;24480;-73
2022/07/07 04:07:29;;;;;;;1.80;1.20;;;;;;;12.84;83.91;96381.88;5007530;28;24459;-73
2022/07/07 04:09:55;;;;;;;1.55;1.20;;;;;;;12.82;84.32;96388.09;5009783;28;24448;-73
2022/07/07 04:12:22;;;;;;;2.30;1.23;;;;;;;12.83;83.89;96390.59;5009624;28;24498;-73
2022/07/07 04:14:49;;;;;;;2.83;1.60;;;;;;;12.83;83.71;96389.78;5011599;28;24830;-73
2022/07/07 04:17:16;;;;;;;2.90;1.55;;;;;;;12.80;84.69;96389.97;5009710;28;24861;-73
2022/07/07 04:19:42;;;;;;;1.75;1.50;;;;;;;12.79;85.09;96396.06;5011187;28;24830;-73
2022/07/07 04:22:09;;;;;;;2.50;1.42;;;;;;;12.77;85.01;96396.16;5006134;28;24444;-73
2022/07/07 04:24:36;;;;;;;1.85;1.38;;;;;;;12.78;84.99;96387.44;5011166;28;24439;-72
2022/07/07 04:27:03;;;;;;;4.03;1.40;;;;;;;12.72;85.38;96387.84;5011077;28;24435;-73
2022/07/07 04:29:30;;;;;;;1.88;1.27;;;;;;;12.73;85.69;96380.88;5011018;28;24470;-73
2022/07/07 04:31:58;;;;;;;1.98;1.33;;;;;;;12.69;86.45;96376.78;5005901;28;24486;-72
2022/07/07 04:34:24;;;;;;;1.63;1.48;;;;;;;12.68;85.85;96375.09;5011241;28;24436;-72
2022/07/07 04:36:51;;;;;;;1.77;1.20;;;;;;;12.49;86.64;96376.22;5010717;28;24448;-73
2022/07/07 04:39:18;;;;;;;2.83;1.40;;;;;;;12.52;86.69;96373.44;5003176;28;24546;-73
2022/07/07 04:41:44;;;;;;;3.13;1.42;;;;;;;12.46;86.47;96371.25;5005640;28;24981;-73
2022/07/07 04:44:11;;;;;;;2.00;1.30;;;;;;;12.23;87.34;96390.78;5008306;28;24536;-73
2022/07/07 04:46:37;;;;;;;3.70;1.30;;;;;;;12.36;88.62;96385.69;5010563;28;24432;-73
2022/07/07 04:49:05;;;;;;;2.50;1.70;;;;;;;12.34;89.03;96387.53;5004504;28;24449;-73
2022/07/07 04:51:32;;;;;;;2.80;1.60;;;;;;;12.40;88.27;96388.94;5009803;28;24444;-73
2022/07/07 04:53:58;;;;;;;5.18;1.50;;;;;;;12.49;87.77;96378.00;5010597;28;24503;-73
2022/07/07 04:56:24;;;;;;;2.13;1.48;;;;;;;12.45;87.37;96377.34;5010292;28;24463;-73
2022/07/07 04:58:51;;;;;;;4.90;1.80;;;;;;;12.53;87.82;96371.69;5009621;28;24480;-73
2022/07/07 05:01:18;;;;;;;1.60;1.50;;;;;;;12.75;86.89;96371.19;5006041;28;24471;-73
2022/07/07 05:03:44;;;;;;;2.20;1.38;;;;;;;12.79;86.14;96375.28;5008727;28;24444;-73
2022/07/07 05:06:12;;;;;;;4.43;1.48;;;;;;;12.83;85.45;96369.81;5010378;28;24439;-73
2022/07/07 05:08:39;;;;;;;2.17;1.23;;;;;;;12.98;84.87;96369.78;5008308;28;24492;-73
2022/07/07 05:11:05;;;;;;;2.08;1.20;;;;;;;13.07;84.60;96369.19;5010212;28;24506;-73
2022/07/07 05:13:32;;;;;;;1.90;1.20;;;;;;;13.15;83.63;96359.13;5008243;28;24716;-72
2022/07/07 05:15:58;;;;;;;2.22;1.38;;;;;;;13.06;83.72;96367.53;5005390;28;25054;-72
2022/07/07 05:18:26;;;;;;;1.92;1.23;;;;;;;13.15;82.85;96369.53;5007992;28;24439;-72
2022/07/07 05:20:53;;;;;;;3.10;1.63;;;;;;;12.92;84.77;96362.38;5010598;28;24464;-73
2022/07/07 05:23:20;;;;;;;5.80;1.60;;;;;;;13.06;83.48;96363.16;5001990;28;24440;-72
2022/07/07 05:25:47;;;;;;;2.50;1.35;;;;;;;13.14;84.11;96369.66;5009932;28;24841;-73
2022/07/07 05:28:13;;;;;;;1.40;1.20;;;;;;;13.40;83.17;96368.00;5009826;28;24455;-72
2022/07/07 05:30:40;;;;;;;1.73;1.20;;;;;;;13.39;81.91;96359.38;4995343;28;24433;-72
2022/07/07 05:33:07;;;;;;;2.03;1.30;;;;;;;13.69;81.80;96364.34;5008368;28;25035;-72
2022/07/07 05:35:34;;;;;;;2.20;1.37;;;;;;;13.71;80.86;96369.44;5009165;28;24447;-73
2022/07/07 05:38:01;;;;;;;2.33;1.17;;;;;;;13.78;79.70;96373.31;5009249;28;24503;-73
2022/07/07 05:40:29;;;;;;;3.33;1.50;;;;;;;13.84;79.15;96361.69;5009942;28;24436;-73
2022/07/07 05:42:55;;;;;;;2.03;1.38;;;;;;;13.78;79.06;96355.09;5010138;28;24443;-73
2022/07/07 05:45:22;;;;;;;10.05;1.77;;;;;;;13.85;78.92;96358.97;5004249;28;24503;-73
2022/07/07 05:47:48;;;;;;;4.00;1.52;;;;;;;13.86;79.28;96354.59;5002781;28;24436;-73
2022/07/07 05:50:15;;;;;;;3.58;1.48;;;;;;;13.99;79.48;96353.66;5006911;28;24429;-73
2022/07/07 05:52:41;;;;;;;4.75;1.90;;;;;;;14.10;79.02;96357.31;5006296;28;24850;-72
2022/07/07 05:55:09;;;;;;;2.70;1.40;;;;;;;14.18;78.76;96350.66;5009154;28;25043;-72
2022/07/07 05:57:37;;;;;;;4.60;1.63;;;;;;;14.16;78.77;96352.50;5009161;28;24460;-73
2022/07/07 06:00:05;;;;;;;2.80;1.33;;;;;;;14.26;79.15;96358.78;5009752;28;24440;-73
2022/07/07 06:02:31;;;;;;;4.35;1.50;;;;;;;14.44;79.04;96355.84;5009786;28;24835;-73
2022/07/07 06:04:58;;;;;;;7.47;1.77;;;;;;;14.64;77.96;96362.31;5009692;28;24481;-72
2022/07/07 06:07:25;;;;;;;4.20;1.50;;;;;;;14.87;76.97;96358.94;5009327;28;25083;-72
2022/07/07 06:09:51;;;;;;;5.60;1.70;;;;;;;15.04;76.69;96362.97;5014403;28;24838;-73
2022/07/07 06:12:17;;;;;;;3.90;1.60;;;;;;;15.20;75.95;96366.16;5004495;28;24798;-72
2022/07/07 06:14:45;;;;;;;10.35;1.60;;;;;;;15.21;76.22;96357.38;5006975;28;24499;-72
2022/07/07 06:17:12;;;;;;;3.25;1.40;;;;;;;15.63;75.95;96359.59;5009126;28;24455;-69
2022/07/07 06:19:38;;;;;;;3.78;1.27;;;;;;;15.84;71.12;96365.03;5001246;28;24853;-72
2022/07/07 06:22:05;;;;;;;7.40;1.60;;;;;;;15.97;72.36;96368.38;5006366;28;24436;-72
2022/07/07 06:24:32;;;;;;;3.55;1.40;;;;;;;16.25;70.20;96361.09;5009720;28;24444;-72
2022/07/07 06:26:58;;;;;;;2.35;1.20;;;;;;;16.29;69.61;96357.31;5009345;28;24539;-72
2022/07/07 06:29:24;;;;;;;5.28;1.50;;;;;;;16.57;69.95;96354.22;5007601;28;24447;-78
2022/07/07 06:31:52;;;;;;;3.22;1.38;;;;;;;16.65;68.29;96346.63;5006747;28;24436;-74
2022/07/07 06:34:19;;;;;;;3.17;1.58;;;;;;;16.81;68.04;96340.22;5008364;28;24447;-74
2022/07/07 06:36:45;;;;;;;2.35;1.25;;;;;;;16.98;67.79;96337.09;5005408;28;24846;-74
2022/07/07 06:39:11;;;;;;;3.17;1.38;;;;;;;16.96;67.58;96338.19;5009494;28;24495;-74
2022/07/07 06:41:39;;;;;;;4.65;1.38;;;;;;;17.12;67.17;96334.19;5009437;28;24997;-75
2022/07/07 06:44:06;;;;;;;3.40;1.33;;;;;;;17.24;66.67;96342.03;5010710;28;24439;-75
2022/07/07 06:46:33;;;;;;;1.77;1.13;;;;;;;17.38;66.67;96337.34;5013343;28;24432;-75
2022/07/07 06:49:01;;;;;;;3.90;1.50;;;;;;;17.31;66.35;96338.78;5013381;28;24447;-74
2022/07/07 06:51:28;;;;;;;6.82;1.50;;;;;;;17.53;66.81;96345.72;5000175;28;24833;-74
2022/07/07 06:53:54;;;;;;;6.35;1.70;;;;;;;17.54;65.94;96346.56;5013079;28;24991;-74
2022/07/07 06:56:20;;;;;;;2.78;1.67;;;;;;;17.73;64.93;96348.53;5013265;28;24452;-74
2022/07/07 06:58:47;;;;;;;2.90;1.40;;;;;;;17.50;64.15;96346.00;5012211;28;24440;-74
2022/07/07 07:01:13;;;;;;;4.72;1.98;;;;;;;17.45;65.04;96348.16;5013069;28;24436;-74
2022/07/07 07:03:40;;;;;;;3.13;1.80;;;;;;;17.46;63.88;96344.56;5013098;28;24490;-75
2022/07/07 07:06:08;;;;;;;4.13;1.70;;;;;;;17.57;63.63;96344.53;5012877;28;24432;-74
2022/07/07 07:08:35;;;;;;;3.58;1.80;;;;;;;17.57;61.75;96347.16;5012741;28;24452;-75
2022/07/07 07:11:02;;;;;;;4.10;1.75;;;;;;;17.72;62.51;96342.44;5012880;28;24544;-75
2022/07/07 07:13:28;;;;;;;8.30;1.55;;;;;;;17.74;62.27;96348.41;5012865;28;25035;-75
2022/07/07 07:15:54;;;;;;;9.23;1.75;;;;;;;17.93;61.84;96357.38;5012728;28;24447;-75
2022/07/07 07:18:21;;;;;;;2.75;1.38;;;;;;;17.90;61.91;96361.91;5012363;28;24440;-75
2022/07/07 07:20:47;;;;;;;3.88;1.60;;;;;;;17.63;62.42;96354.50;5012894;28;24444;-74
2022/07/07 07:23:15;;;;;;;4.30;1.98;;;;;;;17.57;63.42;96354.19;5012870;28;24440;-75
2022/07/07 07:25:42;;;;;;;2.88;1.55;;;;;;;17.65;64.40;96357.84;5012572;28;24440;-75
2022/07/07 07:28:08;;;;;;;5.25;1.77;;;;;;;17.59;63.58;96358.34;5012228;28;24435;-75
2022/07/07 07:30:35;;;;;;;2.50;1.40;;;;;;;17.63;63.68;96351.91;5012602;28;24439;-75
2022/07/07 07:33:01;;;;;;;4.20;1.83;;;;;;;17.67;63.59;96365.56;5007294;28;24973;-75
2022/07/07 07:35:28;;;;;;;7.30;1.52;;;;;;;17.79;63.72;96361.97;5012813;28;24440;-75
2022/07/07 07:37:54;;;;;;;3.80;1.70;;;;;;;17.87;63.86;96359.56;5012408;28;24563;-75
2022/07/07 07:40:22;;;;;;;5.13;1.90;;;;;;;17.71;64.31;96361.75;5012609;28;24443;-74
2022/07/07 07:42:49;;;;;;;4.40;1.80;;;;;;;17.83;65.04;96368.63;5011621;28;25378;-74
2022/07/07 07:45:15;;;;;;;4.50;1.70;;;;;;;17.72;64.85;96368.63;5011856;28;24440;-75
2022/07/07 07:47:44;;;;;;;2.95;1.60;;;;;;;17.84;63.99;96369.47;5009555;28;24447;-75
2022/07/07 07:50:12;;;;;;;3.30;1.55;;;;;;;17.95;64.52;96377.28;5012246;28;24471;-75
2022/07/07 07:52:40;;;;;;;6.53;1.73;;;;;;;17.85;64.92;96377.19;5012083;28;24499;-75
2022/07/07 07:55:07;;;;;;;3.00;1.48;;;;;;;17.81;66.59;96390.69;5005273;28;24475;-75
2022/07/07 07:57:35;;;;;;;3.15;1.65;;;;;;;17.64;67.08;96392.84;5001380;28;25009;-76
2022/07/07 08:00:02;;;;;;;3.97;1.45;;;;;;;17.55;67.39;96390.97;5011983;28;24444;-74
2022/07/07 08:02:29;;;;;;;4.93;1.80;;;;;;;17.33;67.55;96391.03;5010247;28;24599;-75
2022/07/07 08:04:55;;;;;;;3.90;1.70;;;;;;;17.29;68.02;96393.06;5010881;28;24439;-75
2022/07/07 08:07:22;;;;;;;3.30;1.67;;;;;;;17.22;68.19;96396.31;5005093;28;24483;-76
2022/07/07 08:09:48;;;;;;;6.38;1.90;;;;;;;17.18;68.89;96396.53;5010740;28;25043;-74
2022/07/07 08:12:15;;;;;;;13.55;2.03;;;;;;;17.04;69.02;96409.06;5008477;28;24444;-74
2022/07/07 08:14:42;;;;;;;3.75;1.92;;;;;;;16.98;69.65;96407.72;5004964;28;24969;-74
2022/07/07 08:17:09;;;;;;;5.28;1.80;;;;;;;16.98;70.36;96412.13;5008831;28;24475;-74
2022/07/07 08:19:35;;;;;;;4.88;1.98;;;;;;;16.85;70.84;96410.47;5010808;28;24482;-74
2022/07/07 08:22:02;;;;;;;3.15;1.70;;;;;;;16.89;71.10;96411.91;5011519;28;24432;-75
2022/07/07 08:24:29;;;;;;;5.40;2.05;;;;;;;16.89;71.17;96405.84;5011228;28;24748;-75
2022/07/07 08:26:55;;;;;;;4.28;1.83;;;;;;;16.88;72.31;96412.88;5010746;28;25004;-75
2022/07/07 08:29:22;;;;;;;4.03;1.83;;;;;;;16.89;72.36;96409.28;5010713;28;25008;-75
2022/07/07 08:31:49;;;;;;;3.95;1.90;;;;;;;16.89;72.44;96406.69;5011325;28;24447;-74
2022/07/07 08:34:16;;;;;;;5.47;2.67;;;;;;;16.72;75.36;96414.97;5010635;28;24443;-75
2022/07/07 08:36:42;;;;;;;3.10;2.10;;;;;;;16.83;75.66;96415.00;5010728;28;24460;-74
2022/07/07 08:39:09;;;;;;;5.72;2.45;;;;;;;17.01;74.71;96404.06;5010967;28;24447;-74
2022/07/07 08:41:35;;;;;;;5.10;2.63;;;;;;;17.06;74.27;96397.53;5003500;28;24449;-75
2022/07/07 08:44:03;;;;;;;3.90;2.75;;;;;;;17.13;73.85;96403.06;5008163;28;24433;-75
2022/07/07 08:46:29;;;;;;;7.10;3.15;;;;;;;16.95;75.21;96408.00;5006141;28;24539;-72
2022/07/07 08:48:57;;;;;;;10.15;3.10;;;;;;;17.18;75.21;96401.78;5008519;28;24437;-73
2022/07/07 08:51:25;;;;;;;4.70;3.28;;;;;;;17.15;75.58;96396.78;5009599;28;24460;-73
2022/07/07 08:53:52;;;;;;;4.97;3.00;;;;;;;17.47;74.05;96403.03;5008902;28;24440;-73
2022/07/07 08:56:19;;;;;;;9.68;4.00;;;;;;;17.32;74.64;96402.47;5010158;28;24432;-73
2022/07/07 08:58:46;;;;;;;4.82;3.60;;;;;;;17.20;75.61;96396.41;5001195;28;24854;-73
2022/07/07 09:01:13;;;;;;;13.13;3.88;;;;;;;17.16;75.81;96411.53;5010191;28;24568;-73
2022/07/07 09:03:39;;;;;;;8.15;3.47;;;;;;;17.07;75.97;96403.59;5008383;28;24440;-72
2022/07/07 09:06:08;;;;;;;5.70;3.22;;;;;;;17.03;78.21;96407.41;5009359;28;24444;-73
2022/07/07 09:08:37;;;;;;;5.43;3.03;;;;;;;17.10;79.54;96392.88;5009768;28;24548;-73
2022/07/07 09:11:08;;;;;;;4.82;2.63;;;;;;;17.03;80.50;96392.53;5010180;28;24439;-73
2022/07/07 09:13:35;;;;;;;4.55;2.47;;;;;;;16.97;81.39;96400.84;5010684;28;24900;-73
2022/07/07 09:16:04;;;;;;;5.55;2.78;;;;;;;16.97;80.28;96395.59;5006774;28;24441;-72
2022/07/07 09:18:33;;;;;;;8.10;2.95;;;;;;;17.07;80.43;96386.09;5009058;28;24456;-72
2022/07/07 09:21:00;;;;;;;5.75;3.42;;;;;;;17.19;79.29;96386.91;5010441;28;24432;-73
2022/07/07 09:23:28;;;;;;;7.65;3.08;;;;;;;16.78;82.40;96392.78;5008102;28;24524;-72
2022/07/07 09:25:55;;;;;;;10.85;3.28;;;;;;;16.81;83.28;96400.38;5003381;28;24468;-72
2022/07/07 09:28:22;;;;;;;4.18;2.72;;;;;;;16.91;81.92;96394.31;5009250;28;24440;-72
2022/07/07 09:30:49;;;;;;;5.20;2.95;;;;;;;16.98;80.95;96392.03;5008126;28;24432;-73
2022/07/07 09:33:19;;;;;;;3.60;2.60;;;;;;;17.07;80.28;96387.88;5009699;28;24424;-72
2022/07/07 09:38:33;;;;;;;10.23;3.00;;;;;;;17.25;79.33;96380.34;5008751;28;24452;-72
2022/07/07 09:41:02;;;;;;;3.25;2.45;;;;;;;17.42;77.54;96382.44;5010422;28;24648;-72
2022/07/07 09:43:29;;;;;;;7.50;2.47;;;;;;;17.46;77.35;96362.91;5009840;28;24985;-72
2022/07/07 09:46:11;;;;;;;4.18;2.47;;;;;;;17.55;77.34;96359.56;5009653;28;24440;-73
2022/07/07 09:48:39;;;;;;;5.70;2.45;;;;;;;17.57;77.99;96365.47;5005433;28;24448;-73
2022/07/07 09:51:17;;;;;;;7.20;2.50;;;;;;;17.62;77.60;96375.59;4996915;28;24429;-73
2022/07/07 09:54:03;;;;;;;4.63;2.22;;;;;;;17.73;76.74;96379.97;5007134;28;24447;-73
2022/07/07 09:56:31;;;;;;;6.55;2.70;;;;;;;17.81;77.41;96382.81;5006798;28;24531;-73
2022/07/07 09:58:58;;;;;;;6.70;2.33;;;;;;;17.89;77.50;96391.72;5009727;28;25058;-73
2022/07/07 10:01:26;;;;;;;6.70;2.17;;;;;;;18.02;77.54;96388.91;5006822;28;25019;-72
2022/07/07 10:03:56;;;;;;;4.97;2.23;;;;;;;18.16;74.65;96379.06;5009257;28;24447;-73
2022/07/07 10:06:23;;;;;;;9.15;2.22;;;;;;;18.63;72.72;96380.31;5006882;28;24442;-72
2022/07/07 10:08:55;;;;;;;4.78;2.15;;;;;;;18.67;71.21;96375.63;5008358;28;24441;-73
2022/07/07 10:11:25;;;;;;;3.97;2.00;;;;;;;18.78;71.56;96372.94;5006775;28;24436;-73
2022/07/07 10:13:52;;;;;;;3.78;2.00;;;;;;;19.11;69.74;96366.56;5003873;28;24436;-73
2022/07/07 10:16:20;;;;;;;4.13;1.60;;;;;;;19.36;69.30;96367.03;5006334;28;24510;-73
2022/07/07 10:18:47;;;;;;;2.40;1.70;;;;;;;19.01;69.56;96379.66;5013245;28;24571;-72
2022/07/07 10:21:15;;;;;;;3.67;1.77;;;;;;;19.03;70.64;96387.41;5015395;28;24443;-74
2022/07/07 10:23:42;;;;;;;2.83;1.70;;;;;;;18.98;71.93;96384.31;5008042;28;24838;-73
2022/07/07 10:26:08;;;;;;;3.63;1.63;;;;;;;18.83;72.66;96392.56;5012333;28;24494;-73
2022/07/07 10:28:59;;;;;;;3.55;1.52;;;;;;;18.83;73.20;96389.94;5014430;28;25008;-73
2022/07/07 10:31:26;;;;;;;3.58;1.50;;;;;;;18.86;70.51;96391.47;5015976;28;24471;-75
2022/07/07 10:33:56;;;;;;;4.03;1.60;;;;;;;18.78;71.25;96396.56;5009783;28;24802;-73
2022/07/07 10:36:23;;;;;;;2.73;1.30;;;;;;;18.72;71.28;96397.91;5012400;28;24435;-73
2022/07/07 10:38:53;;;;;;;3.10;1.40;;;;;;;18.89;72.12;96393.84;5015453;28;25002;-74
2022/07/07 10:41:22;;;;;;;4.57;1.40;;;;;;;18.88;70.68;96405.31;5015926;28;24531;-73
2022/07/07 10:43:59;;;;;;;3.90;1.60;;;;;;;18.56;70.80;96389.66;5009864;28;25080;-73
2022/07/07 10:46:26;;;;;;;2.47;1.27;;;;;;;18.55;70.99;96394.06;5013065;28;24535;-74
2022/07/07 10:48:55;;;;;;;2.47;1.27;;;;;;;18.53;70.95;96395.16;5015419;28;24487;-73
2022/07/07 10:51:24;;;;;;;2.90;1.52;;;;;;;18.45;70.63;96394.97;5006876;28;24795;-72
2022/07/07 10:54:02;;;;;;;2.73;1.30;;;;;;;18.31;71.60;96398.75;5014302;28;24857;-73
2022/07/07 10:56:48;;;;;;;4.95;1.52;;;;;;;18.38;72.04;96399.91;5012924;28;24487;-73
2022/07/07 10:59:16;;;;;;;4.88;1.50;;;;;;;18.40;72.02;96402.41;5006445;28;24471;-73
2022/07/07 11:02:09;;;;;;;3.13;1.60;;;;;;;18.50;70.36;96403.28;5010770;28;24439;-73
2022/07/07 11:04:46;;;;;;;2.15;1.30;;;;;;;18.65;70.74;96409.00;5013540;28;24483;-74
2022/07/07 11:07:14;;;;;;;4.82;1.63;;;;;;;18.33;71.07;96420.44;5013966;28;24519;-74
2022/07/07 11:09:56;;;;;;;3.45;1.55;;;;;;;18.60;71.81;96412.88;5014722;28;24498;-73
2022/07/07 11:12:37;;;;;;;4.50;1.95;;;;;;;18.55;70.25;96415.06;5015436;28;24527;-73
2022/07/07 11:15:37;;;;;;;3.78;1.77;;;;;;;18.63;70.17;96411.78;5014922;28;24432;-73
2022/07/07 11:18:15;;;;;;;6.30;1.95;;;;;;;18.68;70.87;96408.75;5003305;28;24821;-74
2022/07/07 11:20:54;;;;;;;4.32;1.67;;;;;;;18.65;69.76;96403.78;5014947;28;25335;-74
2022/07/07 11:23:21;;;;;;;3.28;1.42;;;;;;;18.58;70.63;96403.47;5014013;28;24992;-74
2022/07/07 11:25:51;;;;;;;4.00;1.90;;;;;;;18.87;70.56;96411.50;5012985;28;24514;-73
2022/07/07 11:28:17;;;;;;;5.28;1.73;;;;;;;18.93;69.11;96410.97;5014746;28;24450;-74
2022/07/07 11:30:45;;;;;;;4.80;1.80;;;;;;;19.02;67.82;96414.59;5011979;28;24451;-73
2022/07/07 11:33:12;;;;;;;2.45;1.38;;;;;;;19.16;67.92;96413.41;5012317;28;24452;-73
2022/07/07 11:35:40;;;;;;;4.45;1.50;;;;;;;19.25;67.84;96417.88;5012170;28;24436;-73
2022/07/07 11:38:08;;;;;;;3.92;2.10;;;;;;;18.96;67.90;96413.34;5011486;28;24534;-73